Terminal Aerodrome Forecast
Issued by NWS Twin Cities, MN

Home | Current Version | Previous Version | Text Only | Print | Product List | Glossary On
Versions: 1 2 3 4 5 6 7 8 9 10 11 12 13 14
022
FTUS43 KMPX 181753
TAFEAU
TAF
KEAU 181753Z 1818/1918 16015G28KT P6SM OVC110
     FM190000 19010KT P6SM OVC130
     FM190300 20006KT P6SM BKN070
     FM190500 30005KT P6SM BKN050
     FM190900 34010KT P6SM VCSH OVC015
     FM191500 02018G23KT 2SM -SN BR OVC010=

USA.gov is the U.S. government's official web portal to all federal, state and local government web resources and services.